Time;durP1;ratioP1;P1;durP2;ratioP2;P2;SDS_P1;SDS_P2;PMS_P1;PMS_P2;Temp;Humidity;BMP_temperature;BMP_pressure;BME280_temperature;BME280_humidity;BME280_pressure;Samples;Min_cycle;Max_cycle;Signal;HPM_P1;HPM_P2
2023/05/05 00:03:10;;;;;;;4.68;3.15;;;18.70;76.20;;;;;;10715885;33;20013;-77
2023/05/05 00:09:12;;;;;;;4.78;3.35;;;18.50;76.30;;;;;;10714917;33;20554;-77
2023/05/05 00:15:16;;;;;;;5.50;3.83;;;18.50;76.40;;;;;;10714339;33;20059;-77
2023/05/05 00:21:18;;;;;;;7.45;3.08;;;18.50;76.50;;;;;;10716833;33;20052;-77
2023/05/05 00:27:20;;;;;;;6.25;3.97;;;18.40;76.60;;;;;;10712647;33;20034;-77
2023/05/05 00:33:22;;;;;;;7.00;3.90;;;18.40;76.60;;;;;;10716584;33;20021;-77
2023/05/05 00:39:24;;;;;;;3.90;2.65;;;18.30;76.60;;;;;;10713634;33;20021;-77
2023/05/05 00:45:27;;;;;;;10.98;3.60;;;18.20;76.70;;;;;;10716274;33;20053;-77
2023/05/05 00:51:30;;;;;;;3.30;2.28;;;18.20;76.90;;;;;;10712240;33;20414;-77
2023/05/05 00:57:33;;;;;;;3.17;2.35;;;18.10;76.80;;;;;;10701667;33;20055;-77
2023/05/05 01:03:40;;;;;;;6.20;3.87;;;18.00;77.00;;;;;;10713180;33;20059;-77
2023/05/05 01:10:21;;;;;;;5.85;3.58;;;18.00;77.10;;;;;;10715080;33;20331;-77
2023/05/05 01:16:27;;;;;;;5.80;4.18;;;18.00;77.00;;;;;;10714394;33;20292;-77
2023/05/05 01:22:58;;;;;;;5.97;4.22;;;18.00;77.10;;;;;;10715120;33;20372;-77
2023/05/05 01:29:19;;;;;;;4.10;3.12;;;18.00;77.00;;;;;;10713097;33;20387;-77
2023/05/05 01:35:35;;;;;;;5.07;3.55;;;18.00;76.90;;;;;;10715482;33;20013;-77
2023/05/05 01:41:42;;;;;;;5.62;4.60;;;17.90;77.10;;;;;;10717712;33;20025;-77
2023/05/05 01:47:45;;;;;;;5.55;4.10;;;17.80;77.10;;;;;;10721782;33;20021;-77
2023/05/05 01:53:48;;;;;;;7.00;5.25;;;17.90;77.00;;;;;;10718555;33;20106;-77
2023/05/05 01:59:52;;;;;;;6.22;4.18;;;17.80;77.30;;;;;;10721028;33;20047;-77
2023/05/05 02:06:07;;;;;;;5.65;3.42;;;17.70;78.00;;;;;;10720148;33;20037;-77
2023/05/05 02:12:10;;;;;;;6.03;3.78;;;17.60;78.70;;;;;;10719627;33;20044;-77
2023/05/05 02:18:14;;;;;;;6.55;4.10;;;17.60;78.90;;;;;;10720360;33;20391;-77
2023/05/05 02:24:16;;;;;;;4.15;2.97;;;17.50;78.60;;;;;;10718371;33;20064;-77
2023/05/05 02:30:19;;;;;;;5.95;3.50;;;17.50;78.30;;;;;;10719360;33;20331;-77
2023/05/05 02:36:40;;;;;;;6.28;4.47;;;17.40;78.30;;;;;;10719732;33;20340;-78
2023/05/05 02:42:45;;;;;;;7.75;3.42;;;17.30;78.20;;;;;;10715740;33;20052;-77
2023/05/05 02:48:48;;;;;;;10.60;5.25;;;17.30;78.20;;;;;;10717687;33;20033;-77
2023/05/05 02:54:50;;;;;;;6.95;4.95;;;17.20;78.40;;;;;;10714368;33;20048;-77
2023/05/05 03:01:24;;;;;;;7.12;4.03;;;17.20;78.40;;;;;;10717431;33;20025;-77
2023/05/05 03:07:29;;;;;;;7.93;5.25;;;17.20;78.40;;;;;;10717407;33;20073;-76
2023/05/05 03:13:39;;;;;;;7.45;4.85;;;17.30;78.40;;;;;;10714020;33;20351;-75
2023/05/05 03:19:43;;;;;;;5.05;2.85;;;17.30;78.20;;;;;;10715593;33;20037;-75
2023/05/05 03:25:47;;;;;;;7.00;5.30;;;17.30;78.20;;;;;;10704142;33;20040;-75
2023/05/05 03:31:52;;;;;;;5.45;3.53;;;17.20;78.20;;;;;;10714346;33;20067;-75
2023/05/05 03:37:56;;;;;;;8.00;4.45;;;17.20;78.20;;;;;;10716879;32;20029;-75
2023/05/05 03:43:58;;;;;;;8.48;5.70;;;17.10;78.20;;;;;;10713922;33;20355;-75
2023/05/05 03:50:00;;;;;;;7.35;4.90;;;17.00;78.30;;;;;;10712669;33;20055;-75
2023/05/05 03:56:04;;;;;;;13.50;6.28;;;17.00;78.40;;;;;;10724524;33;20059;-75
2023/05/05 04:02:06;;;;;;;9.60;8.43;;;17.00;78.30;;;;;;10713581;33;20029;-75
2023/05/05 04:08:08;;;;;;;11.38;6.78;;;17.00;78.70;;;;;;10715836;33;20412;-76
2023/05/05 04:14:10;;;;;;;8.00;6.12;;;17.00;78.70;;;;;;10715430;33;20312;-76
2023/05/05 04:20:13;;;;;;;10.70;6.62;;;17.00;79.00;;;;;;10715855;33;20056;-76
2023/05/05 04:26:16;;;;;;;8.68;7.07;;;17.00;78.90;;;;;;10714313;33;20029;-76
2023/05/05 04:32:18;;;;;;;8.57;5.47;;;17.00;78.90;;;;;;10716622;33;20021;-75
2023/05/05 04:38:20;;;;;;;4.60;2.80;;;17.00;78.70;;;;;;10715286;33;20025;-75
2023/05/05 04:44:48;;;;;;;6.18;4.55;;;17.00;78.70;;;;;;10713989;33;20316;-76
2023/05/05 04:50:57;;;;;;;9.10;6.93;;;17.00;78.80;;;;;;10713957;33;20029;-76
2023/05/05 04:57:16;;;;;;;7.32;4.47;;;17.00;79.40;;;;;;10712991;33;20044;-76
2023/05/05 05:03:19;;;;;;;11.43;5.65;;;17.10;79.70;;;;;;10711657;33;20025;-77
2023/05/05 05:09:21;;;;;;;8.95;7.00;;;17.20;79.90;;;;;;10712035;33;20336;-76
2023/05/05 05:15:24;;;;;;;6.45;4.28;;;17.30;79.80;;;;;;10711743;33;20343;-77
2023/05/05 05:21:27;;;;;;;9.25;4.50;;;17.30;79.70;;;;;;10712310;33;20049;-77
2023/05/05 05:27:33;;;;;;;8.52;5.93;;;17.30;79.70;;;;;;10711772;33;20033;-77
2023/05/05 05:33:46;;;;;;;6.43;4.37;;;17.40;79.60;;;;;;10709641;33;20380;-76
2023/05/05 05:39:52;;;;;;;5.53;3.60;;;17.50;79.80;;;;;;10697310;32;20411;-77
2023/05/05 05:46:07;;;;;;;8.52;5.97;;;17.50;79.70;;;;;;10708383;33;20358;-77
2023/05/05 05:52:09;;;;;;;9.98;7.00;;;17.60;79.50;;;;;;10709993;33;20017;-77
2023/05/05 05:58:11;;;;;;;9.75;4.60;;;17.60;79.60;;;;;;10710202;33;20013;-77
2023/05/05 06:04:14;;;;;;;6.07;4.15;;;17.70;79.70;;;;;;10697908;32;20036;-76
2023/05/05 06:10:17;;;;;;;9.15;5.50;;;17.80;79.60;;;;;;10709264;33;20091;-77
2023/05/05 06:16:20;;;;;;;12.23;7.25;;;17.90;79.50;;;;;;10710239;33;20449;-77
2023/05/05 06:22:23;;;;;;;10.00;6.32;;;18.00;79.60;;;;;;10713154;33;20343;-76
2023/05/05 06:28:26;;;;;;;7.75;5.45;;;18.20;79.20;;;;;;10718060;33;20036;-76
2023/05/05 06:34:28;;;;;;;8.25;6.20;;;18.30;78.90;;;;;;10719158;33;20021;-76
2023/05/05 06:40:30;;;;;;;10.70;6.05;;;18.40;79.00;;;;;;10715470;33;20021;-76
2023/05/05 06:46:33;;;;;;;12.70;9.90;;;18.50;79.00;;;;;;10718227;33;20022;-76
2023/05/05 06:52:35;;;;;;;10.82;7.82;;;18.50;79.10;;;;;;10714070;33;20025;-76
2023/05/05 06:58:37;;;;;;;10.02;7.05;;;18.50;79.10;;;;;;10717870;32;20068;-74
2023/05/05 07:04:43;;;;;;;10.40;8.25;;;18.50;78.80;;;;;;10716520;33;20048;-76
2023/05/05 07:10:46;;;;;;;6.68;5.10;;;18.80;78.60;;;;;;10716166;33;20025;-75
2023/05/05 07:16:48;;;;;;;7.25;5.90;;;18.90;78.10;;;;;;10715374;33;20025;-74
2023/05/05 07:22:50;;;;;;;9.35;6.60;;;19.00;77.80;;;;;;10713462;33;20028;-76
2023/05/05 07:28:54;;;;;;;10.85;8.05;;;19.10;77.90;;;;;;10714898;33;20028;-75
2023/05/05 07:34:56;;;;;;;13.45;8.75;;;19.20;77.60;;;;;;10714271;33;20425;-75
2023/05/05 07:40:58;;;;;;;12.02;6.30;;;19.30;77.20;;;;;;10716992;33;20280;-74
2023/05/05 07:47:01;;;;;;;11.65;8.23;;;19.30;76.90;;;;;;10714801;33;20040;-74
2023/05/05 07:53:03;;;;;;;11.02;7.85;;;19.40;77.10;;;;;;10718892;27;20056;-75
2023/05/05 07:59:07;;;;;;;17.08;8.82;;;19.50;76.50;;;;;;10716684;33;20029;-74
2023/05/05 08:05:10;;;;;;;11.55;8.82;;;19.60;76.30;;;;;;10714902;33;20051;-74
2023/05/05 08:11:12;;;;;;;12.57;8.25;;;19.70;75.90;;;;;;10714968;33;20056;-75
2023/05/05 08:18:06;;;;;;;13.45;8.02;;;19.80;75.60;;;;;;10716497;33;20395;-74
2023/05/05 08:24:13;;;;;;;9.90;6.78;;;19.90;75.10;;;;;;10611277;33;20433;-74
2023/05/05 08:30:18;;;;;;;12.32;9.82;;;20.00;74.40;;;;;;10614715;33;20329;-74
2023/05/05 08:36:21;;;;;;;11.15;8.13;;;20.10;74.30;;;;;;10601442;33;20057;-74
2023/05/05 08:42:23;;;;;;;11.20;8.18;;;20.20;73.90;;;;;;10621485;33;20060;-74
2023/05/05 08:48:27;;;;;;;11.35;8.18;;;20.30;73.50;;;;;;10604900;33;20041;-74
2023/05/05 08:54:33;;;;;;;12.00;8.60;;;20.30;73.20;;;;;;10604483;33;20037;-75
2023/05/05 09:00:36;;;;;;;11.65;7.40;;;20.50;73.00;;;;;;10662895;33;20029;-73
2023/05/05 09:06:38;;;;;;;17.58;13.57;;;20.60;72.70;;;;;;10676672;33;20419;-73
2023/05/05 09:12:40;;;;;;;8.93;6.93;;;20.70;72.60;;;;;;10678669;33;20481;-74
2023/05/05 09:18:44;;;;;;;8.68;6.82;;;20.70;71.90;;;;;;10675911;33;20056;-74
2023/05/05 09:24:57;;;;;;;11.45;8.48;;;20.80;71.50;;;;;;10677180;33;20351;-75
2023/05/05 09:31:14;;;;;;;12.20;9.73;;;21.00;71.00;;;;;;10676521;33;20333;-73
2023/05/05 09:37:30;;;;;;;8.73;6.15;;;21.20;69.60;;;;;;10674651;33;20034;-75
2023/05/05 09:43:50;;;;;;;12.43;7.72;;;21.20;69.60;;;;;;10674811;33;20048;-75
2023/05/05 09:49:57;;;;;;;7.47;5.28;;;21.30;68.20;;;;;;10674582;33;20033;-75
2023/05/05 09:56:00;;;;;;;7.37;4.72;;;21.40;68.10;;;;;;10675022;33;20022;-73
2023/05/05 10:02:14;;;;;;;9.88;8.38;;;21.50;67.90;;;;;;10680559;33;20047;-74
2023/05/05 10:08:21;;;;;;;7.80;6.22;;;21.70;67.00;;;;;;10680362;33;20068;-75
2023/05/05 10:15:10;;;;;;;9.80;6.32;;;21.80;67.00;;;;;;10681887;33;20079;-74
2023/05/05 10:21:19;;;;;;;8.07;5.57;;;21.80;67.50;;;;;;10680432;33;20052;-73
2023/05/05 10:27:23;;;;;;;6.82;4.20;;;22.00;66.80;;;;;;10681519;33;20025;-74
2023/05/05 10:34:01;;;;;;;8.82;7.25;;;22.20;66.40;;;;;;10682825;33;20364;-74
2023/05/05 10:40:05;;;;;;;11.80;5.90;;;22.50;65.60;;;;;;10683772;33;20021;-74
2023/05/05 10:46:09;;;;;;;8.20;4.68;;;22.50;65.50;;;;;;10681659;33;20021;-74
2023/05/05 10:52:17;;;;;;;6.82;4.28;;;22.80;64.70;;;;;;10682047;33;20340;-75
2023/05/05 10:58:41;;;;;;;7.25;4.78;;;22.80;63.20;;;;;;10696734;33;20040;-73
2023/05/05 11:05:11;;;;;;;6.00;4.05;;;23.10;63.10;;;;;;10714895;33;20304;-74
2023/05/05 11:11:13;;;;;;;6.78;3.62;;;23.50;62.60;;;;;;10718018;33;20319;-73
2023/05/05 11:17:45;;;;;;;8.45;4.55;;;23.80;62.30;;;;;;10717180;33;20351;-74
2023/05/05 11:23:52;;;;;;;5.40;3.58;;;23.90;62.30;;;;;;10717948;33;20048;-74
2023/05/05 11:30:08;;;;;;;6.15;3.65;;;24.20;61.60;;;;;;10718531;33;20052;-73
2023/05/05 11:36:16;;;;;;;6.87;4.53;;;24.20;60.80;;;;;;10715986;33;20044;-73
2023/05/05 11:42:42;;;;;;;8.20;6.15;;;24.20;60.70;;;;;;10715844;33;20184;-74
2023/05/05 11:48:45;;;;;;;10.15;4.68;;;24.40;60.60;;;;;;10714271;33;20033;-73
2023/05/05 11:55:26;;;;;;;12.73;7.65;;;24.30;60.20;;;;;;10714522;33;20020;-74
2023/05/05 12:01:41;;;;;;;9.88;8.07;;;24.60;58.30;;;;;;10717008;33;20367;-73
2023/05/05 12:07:44;;;;;;;8.68;4.20;;;24.60;59.30;;;;;;10715416;33;20174;-73
2023/05/05 12:13:47;;;;;;;10.15;6.45;;;24.70;59.50;;;;;;10717395;33;20017;-73
2023/05/05 12:19:52;;;;;;;7.72;4.60;;;24.80;59.10;;;;;;10716126;33;20024;-73
2023/05/05 12:25:55;;;;;;;9.23;6.10;;;24.90;58.50;;;;;;10715882;33;20468;-73
2023/05/05 12:31:59;;;;;;;11.00;5.65;;;24.80;58.20;;;;;;10715306;33;20110;-73
2023/05/05 12:38:04;;;;;;;10.10;5.15;;;24.70;58.30;;;;;;10713382;33;20024;-74
2023/05/05 12:44:08;;;;;;;6.60;4.40;;;24.70;58.00;;;;;;10714323;33;20059;-73
2023/05/05 12:50:30;;;;;;;6.97;4.20;;;24.70;58.40;;;;;;10749733;33;20386;-73
2023/05/05 12:56:42;;;;;;;8.20;6.25;;;24.80;58.30;;;;;;10748737;33;20105;-73
2023/05/05 13:02:48;;;;;;;7.60;5.25;;;24.70;58.40;;;;;;10751671;33;20057;-73
2023/05/05 13:08:50;;;;;;;6.10;4.37;;;24.70;58.50;;;;;;10752042;33;20025;-73
2023/05/05 13:15:06;;;;;;;7.07;4.25;;;24.70;58.40;;;;;;10747669;33;20327;-73
2023/05/05 13:21:08;;;;;;;5.03;3.65;;;24.80;58.30;;;;;;10746397;33;20060;-74
2023/05/05 13:27:11;;;;;;;11.02;5.55;;;24.80;58.20;;;;;;10750599;33;20016;-73
2023/05/05 13:33:13;;;;;;;4.45;2.80;;;24.80;58.10;;;;;;10750329;33;20437;-73
2023/05/05 13:39:17;;;;;;;5.97;3.90;;;24.90;58.80;;;;;;10756886;33;20021;-73
2023/05/05 13:45:21;;;;;;;4.90;3.05;;;24.90;58.00;;;;;;10733134;33;20060;-73
2023/05/05 13:51:23;;;;;;;5.30;3.25;;;24.90;58.00;;;;;;10682595;33;20033;-72
2023/05/05 13:57:26;;;;;;;4.57;3.35;;;24.90;57.70;;;;;;10682550;33;20327;-73
2023/05/05 14:03:29;;;;;;;6.68;4.53;;;25.00;57.70;;;;;;10681819;33;20060;-74
2023/05/05 14:09:31;;;;;;;6.50;3.65;;;25.00;57.40;;;;;;10682594;33;20045;-74
2023/05/05 14:15:35;;;;;;;5.22;3.58;;;24.90;58.10;;;;;;10679376;33;20041;-73
2023/05/05 14:21:39;;;;;;;5.35;2.87;;;25.10;58.10;;;;;;10681146;33;20414;-72
2023/05/05 14:27:41;;;;;;;5.00;3.58;;;25.30;57.90;;;;;;10680956;33;20037;-73
2023/05/05 14:33:43;;;;;;;5.32;3.45;;;25.20;58.80;;;;;;10684128;33;20022;-72
2023/05/05 14:39:46;;;;;;;4.00;3.03;;;25.20;58.60;;;;;;10679514;33;20025;-73
2023/05/05 14:46:18;;;;;;;4.05;2.67;;;25.20;59.50;;;;;;10682925;33;20029;-72
2023/05/05 14:52:21;;;;;;;13.40;6.47;;;25.20;59.10;;;;;;10681536;33;20056;-72
2023/05/05 14:58:23;;;;;;;4.07;2.37;;;25.30;59.10;;;;;;10683494;33;20312;-73
2023/05/05 15:04:27;;;;;;;7.53;5.03;;;25.30;58.40;;;;;;10681978;33;20052;-75
2023/05/05 15:10:33;;;;;;;3.57;2.80;;;25.20;60.30;;;;;;10680357;33;20063;-72
2023/05/05 15:16:36;;;;;;;3.45;2.03;;;25.10;61.60;;;;;;10680665;33;20123;-72
2023/05/05 15:22:38;;;;;;;8.70;3.87;;;25.20;60.60;;;;;;10679533;33;20025;-74
2023/05/05 15:28:40;;;;;;;4.75;3.30;;;25.20;61.30;;;;;;10690926;33;20407;-73
2023/05/05 15:34:43;;;;;;;5.30;2.78;;;25.10;62.80;;;;;;10676116;33;20056;-73
2023/05/05 15:40:54;;;;;;;4.82;3.58;;;25.10;61.20;;;;;;10682158;33;20013;-74
2023/05/05 15:46:56;;;;;;;4.32;2.78;;;25.20;60.50;;;;;;10680712;33;20022;-73
2023/05/05 15:52:59;;;;;;;6.87;4.10;;;25.10;61.60;;;;;;10236632;27;15735408;-72
2023/05/05 15:59:04;;;;;;;3.53;2.53;;;25.10;61.60;;;;;;10716933;33;20025;-74
2023/05/05 16:05:06;;;;;;;4.37;2.60;;;25.10;60.80;;;;;;10715521;33;20051;-73
2023/05/05 16:11:12;;;;;;;3.90;2.42;;;25.10;59.80;;;;;;10712951;33;20090;-73
2023/05/05 16:17:23;;;;;;;5.65;3.72;;;25.10;59.80;;;;;;10717127;33;20445;-73
2023/05/05 16:23:27;;;;;;;2.80;2.20;;;25.00;60.80;;;;;;10715895;33;20052;-74
2023/05/05 16:29:30;;;;;;;11.80;3.60;;;24.90;61.60;;;;;;10715708;33;20055;-74
2023/05/05 16:35:32;;;;;;;5.20;3.55;;;24.80;61.00;;;;;;10715507;33;20403;-74
2023/05/05 16:41:35;;;;;;;7.40;3.55;;;24.80;61.40;;;;;;10714432;33;20013;-73
2023/05/05 16:47:40;;;;;;;5.97;2.47;;;24.70;60.90;;;;;;10712676;33;20063;-74
2023/05/05 16:53:47;;;;;;;4.28;3.08;;;24.70;61.00;;;;;;10711035;33;20355;-74
2023/05/05 16:59:55;;;;;;;3.05;2.40;;;24.70;61.00;;;;;;10714982;33;20200;-74
2023/05/05 17:06:02;;;;;;;6.50;3.03;;;24.80;60.90;;;;;;10714202;33;20048;-74
2023/05/05 17:12:08;;;;;;;4.15;2.15;;;24.80;60.50;;;;;;10714235;33;20029;-74
2023/05/05 17:18:12;;;;;;;6.07;2.58;;;24.80;60.50;;;;;;10713128;33;20059;-74
2023/05/05 17:24:17;;;;;;;8.30;2.67;;;24.80;60.50;;;;;;10711347;33;20021;-74
2023/05/05 17:30:22;;;;;;;2.95;2.12;;;24.50;60.50;;;;;;10701043;33;20036;-74
2023/05/05 17:36:24;;;;;;;4.97;3.08;;;24.30;61.30;;;;;;10711449;33;20339;-73
2023/05/05 17:42:31;;;;;;;22.90;4.22;;;24.10;61.50;;;;;;10713874;33;20052;-73
2023/05/05 17:48:44;;;;;;;4.82;3.05;;;24.00;61.40;;;;;;10710415;33;20040;-73
2023/05/05 17:54:48;;;;;;;3.80;2.33;;;24.40;60.70;;;;;;10709721;33;20033;-74
2023/05/05 18:00:54;;;;;;;4.18;2.53;;;24.50;60.70;;;;;;10712128;33;20022;-74
2023/05/05 18:06:57;;;;;;;5.93;2.70;;;24.70;60.30;;;;;;10711588;33;20331;-74
2023/05/05 18:13:00;;;;;;;4.87;2.03;;;24.30;60.90;;;;;;10713087;32;20064;-74
2023/05/05 18:19:06;;;;;;;6.40;1.98;;;24.00;61.70;;;;;;10709932;33;20136;-73
2023/05/05 18:25:16;;;;;;;2.95;1.92;;;23.80;62.30;;;;;;10715214;33;20025;-73
2023/05/05 18:31:18;;;;;;;14.20;2.40;;;23.60;62.70;;;;;;10718554;33;20308;-73
2023/05/05 18:37:20;;;;;;;3.70;1.98;;;23.40;63.10;;;;;;10718600;33;20464;-73
2023/05/05 18:43:22;;;;;;;4.85;2.30;;;23.30;63.40;;;;;;10718439;33;20029;-73
2023/05/05 18:49:27;;;;;;;3.53;1.73;;;23.20;63.70;;;;;;10715330;33;20051;-73
2023/05/05 18:55:31;;;;;;;3.78;2.08;;;23.10;64.10;;;;;;10718111;33;20343;-73
2023/05/05 19:01:51;;;;;;;5.30;2.15;;;22.90;64.60;;;;;;10717382;33;20020;-74
2023/05/05 19:07:53;;;;;;;5.10;2.58;;;22.80;64.90;;;;;;10717626;33;20033;-73
2023/05/05 19:13:55;;;;;;;4.87;2.67;;;22.80;65.20;;;;;;10716692;33;20418;-75
2023/05/05 19:20:02;;;;;;;5.80;2.75;;;22.70;65.50;;;;;;10717215;33;20017;-74
2023/05/05 19:26:05;;;;;;;3.90;2.65;;;22.60;65.90;;;;;;10717169;33;20355;-74
2023/05/05 19:32:26;;;;;;;2.90;1.70;;;22.50;66.30;;;;;;10688496;32;20029;-74
2023/05/05 19:38:29;;;;;;;4.18;2.58;;;22.40;66.60;;;;;;10679726;33;20025;-74
2023/05/05 19:44:47;;;;;;;4.20;2.55;;;22.30;67.00;;;;;;10741507;32;20029;-74
2023/05/05 19:51:08;;;;;;;4.78;3.30;;;22.30;67.30;;;;;;10679805;33;20486;-74
2023/05/05 19:57:10;;;;;;;4.57;3.08;;;22.30;67.60;;;;;;10680475;33;20095;-73
2023/05/05 20:03:13;;;;;;;6.47;3.47;;;22.20;67.80;;;;;;10679768;33;20415;-74
2023/05/05 20:09:54;;;;;;;4.95;2.80;;;22.10;68.10;;;;;;10679858;33;20373;-74
2023/05/05 20:15:57;;;;;;;4.43;2.80;;;22.10;68.40;;;;;;10604444;33;20026;-74
2023/05/05 20:22:00;;;;;;;3.97;2.47;;;22.00;68.60;;;;;;10603431;33;20091;-74
2023/05/05 20:28:04;;;;;;;4.35;2.83;;;21.90;68.90;;;;;;10605143;33;20052;-74
2023/05/05 20:34:08;;;;;;;3.62;2.35;;;21.90;69.10;;;;;;10605026;33;20040;-74
2023/05/05 20:40:12;;;;;;;3.42;2.30;;;21.80;69.50;;;;;;10604587;33;20186;-74
2023/05/05 20:46:15;;;;;;;5.55;3.15;;;21.80;69.70;;;;;;10604656;33;20018;-74
2023/05/05 20:52:18;;;;;;;3.30;2.10;;;21.70;70.00;;;;;;10658113;33;20060;-74
2023/05/05 20:58:24;;;;;;;5.53;2.72;;;21.60;70.30;;;;;;10677643;33;20327;-74
2023/05/05 21:04:29;;;;;;;5.85;2.92;;;21.60;70.60;;;;;;10684343;33;20447;-74
2023/05/05 21:10:35;;;;;;;3.60;2.17;;;21.50;70.70;;;;;;10715932;33;20043;-74
2023/05/05 21:16:42;;;;;;;4.85;2.92;;;21.50;70.90;;;;;;10723902;33;20439;-74
2023/05/05 21:22:48;;;;;;;4.77;3.07;;;21.40;71.10;;;;;;10714280;33;20008;-74
2023/05/05 21:28:51;;;;;;;4.32;2.90;;;21.30;71.30;;;;;;10711569;33;20079;-74
2023/05/05 21:34:53;;;;;;;4.53;3.08;;;21.30;71.70;;;;;;10709687;33;20340;-74
2023/05/05 21:40:56;;;;;;;4.35;2.65;;;21.30;71.80;;;;;;10714076;33;20044;-74
2023/05/05 21:46:59;;;;;;;3.67;2.75;;;21.30;72.00;;;;;;10712674;33;20068;-74
2023/05/05 21:53:02;;;;;;;3.90;2.80;;;21.20;72.10;;;;;;10715512;33;20063;-73
2023/05/05 21:59:04;;;;;;;6.72;2.97;;;21.00;72.40;;;;;;10720213;33;20025;-73
2023/05/05 22:05:08;;;;;;;4.10;2.67;;;20.90;72.60;;;;;;10719697;33;20021;-73
2023/05/05 22:11:10;;;;;;;3.80;2.65;;;20.90;72.90;;;;;;10720877;33;20371;-74
2023/05/05 22:17:12;;;;;;;6.85;3.28;;;20.80;73.00;;;;;;10720736;33;20043;-74
2023/05/05 22:23:16;;;;;;;5.55;3.58;;;20.80;73.20;;;;;;10714178;33;20441;-74
2023/05/05 22:29:20;;;;;;;4.50;3.37;;;20.80;73.60;;;;;;10719760;33;20068;-74
2023/05/05 22:35:22;;;;;;;6.35;3.47;;;20.80;74.40;;;;;;10718384;33;20033;-74
2023/05/05 22:41:25;;;;;;;6.18;3.75;;;20.60;74.50;;;;;;10718645;33;20334;-74
2023/05/05 22:47:27;;;;;;;5.78;3.47;;;20.50;74.60;;;;;;10719771;33;20332;-74
2023/05/05 22:53:29;;;;;;;4.32;3.05;;;20.40;74.60;;;;;;10718495;33;20048;-74
2023/05/05 22:59:31;;;;;;;5.45;3.85;;;20.40;74.60;;;;;;10719747;33;20044;-74
2023/05/05 23:05:34;;;;;;;3.78;2.83;;;20.30;74.60;;;;;;10718048;33;20025;-74
2023/05/05 23:11:36;;;;;;;5.20;3.62;;;20.20;74.80;;;;;;10719074;33;20413;-74
2023/05/05 23:17:39;;;;;;;5.80;3.65;;;20.20;74.90;;;;;;10713948;33;20017;-74
2023/05/05 23:23:41;;;;;;;6.82;3.53;;;20.10;75.00;;;;;;10717251;33;20339;-74
2023/05/05 23:30:06;;;;;;;7.40;4.43;;;20.00;75.10;;;;;;10715534;33;20028;-75
2023/05/05 23:36:08;;;;;;;7.68;4.55;;;19.90;75.20;;;;;;10715881;33;20273;-74
2023/05/05 23:42:11;;;;;;;5.15;3.87;;;19.90;75.30;;;;;;10716076;33;20071;-75
2023/05/05 23:48:16;;;;;;;5.05;3.42;;;19.80;75.40;;;;;;10714070;33;20049;-75
2023/05/05 23:54:18;;;;;;;6.07;4.05;;;19.80;75.60;;;;;;10718817;27;20355;-74
